Bellwood, Illinois
Current Conditions -  °F | °C
As of 6:51 AM on Friday 28 Nov 2014 (Local Time) from KORD Reporting Station
Light Snow Light Snow  
Wind Chill:   Ceiling: 7500
Heat Index: 20°   Visibility: 9mi
Dew Point: 13°   Wind: 10mph
Humidity: 74%   Direction: 170°S
Pressure: 30.28"   Gusts: NA
Location:  41.88°N, 87.87°W
Report Text: KORD 281251Z 17009KT 9SM -SN OVC075 M07/M11 A3028 RMK AO2 SNB28 SLP264 P0000 T10671106
Loading
Personal Weather Stations






























Interactive Weather Map New forecast layout! Learn more

10-Day Weather Forecast

Advertisements
Track Severe Weather on mobile